PWSweather.com
Personal Weather Stations
Station Observations
PENICUIKWS
PenicuikGB

PenicuikGB

Lat: 55.830932, Lon: -3.224533000000065

Elevation: 166

Station Type: Fine Offset

http://weather.penicuik.org

High Low Average
Temperature 64.8°F18.2°C 42.4°F5.8°C 52.3°F11.3°C
Dew Point 53.6°F12.0°C 42.2°F5.7°C 48.2°F9.0°C
Winds 4.5 mph 7.2 kmh Calm Calm 2.0 mph SW3.2 kmh SW
Wind Gusts 9.8 mph15.8 kmh -- 3.0 mph4.8 kmh
Humidity 99% 62% 87%
Pressure 30.13 in1020.3 mb 29.86 in1011.2 mb -
Precipitation 0.05 in1.3 mm - -
Hour Temp Dew Point Humidity Winds Wind Gusts Pressure Precip Precip Rate Daily Precip Total
12:15 AM 43.3°F6.3°C 42.8°F6.0°C 98% 0.6 mph W1.0 kmh W 1.6 mph2.6 kmh 30.04 in1017.3 mb 0.00 in0.0 mm 0.00 in0.0 mm 0.00 in0.0 mm
12:30 AM 43.0°F6.1°C 42.5°F5.8°C 98% 0.4 mph W0.6 kmh W 0.7 mph1.1 kmh 30.05 in1017.6 mb 0.00 in0.0 mm 0.00 in0.0 mm 0.00 in0.0 mm
12:45 AM 42.8°F6.0°C 42.3°F5.7°C 98% 0.5 mph NW0.8 kmh NW 1.6 mph2.6 kmh 30.05 in1017.6 mb 0.00 in0.0 mm 0.00 in0.0 mm 0.00 in0.0 mm
01:00 AM 43.0°F6.1°C 42.5°F5.8°C 98% 0.6 mph NW1.0 kmh NW 1.6 mph2.6 kmh 30.05 in1017.6 mb 0.00 in0.0 mm 0.00 in0.0 mm 0.00 in0.0 mm
01:30 AM 42.6°F5.9°C 42.4°F5.8°C 99% 0.5 mph NW0.8 kmh NW 0.7 mph1.1 kmh 30.05 in1017.6 mb 0.00 in0.0 mm 0.00 in0.0 mm 0.00 in0.0 mm
01:45 AM 42.4°F5.8°C 42.2°F5.7°C 99% 0.7 mph N1.1 kmh N 2.2 mph3.5 kmh 30.05 in1017.6 mb 0.00 in0.0 mm 0.00 in0.0 mm 0.00 in0.0 mm
02:00 AM 42.6°F5.9°C 42.4°F5.8°C 99% 1.2 mph SE1.9 kmh SE 2.2 mph3.5 kmh 30.06 in1017.9 mb 0.00 in0.0 mm 0.00 in0.0 mm 0.00 in0.0 mm
02:15 AM 42.6°F5.9°C 42.4°F5.8°C 99% 1.4 mph W2.3 kmh W 2.2 mph3.5 kmh 30.06 in1017.9 mb 0.00 in0.0 mm 0.00 in0.0 mm 0.00 in0.0 mm
02:30 AM 42.6°F5.9°C 42.4°F5.8°C 99% 1.1 mph NW1.8 kmh NW 2.2 mph3.5 kmh 30.07 in1018.3 mb 0.00 in0.0 mm 0.00 in0.0 mm 0.00 in0.0 mm
02:45 AM 42.6°F5.9°C 42.4°F5.8°C 99% 1.1 mph WSW1.8 kmh WSW 2.2 mph3.5 kmh 30.06 in1017.9 mb 0.00 in0.0 mm 0.00 in0.0 mm 0.00 in0.0 mm
03:00 AM 42.8°F6.0°C 42.3°F5.7°C 98% 1.1 mph NW1.8 kmh NW 4.5 mph7.2 kmh 30.06 in1017.9 mb 0.00 in0.0 mm 0.00 in0.0 mm 0.00 in0.0 mm
03:15 AM 43.2°F6.2°C 42.6°F5.9°C 98% 0.7 mph W1.1 kmh W 1.6 mph2.6 kmh 30.07 in1018.3 mb 0.00 in0.0 mm 0.00 in0.0 mm 0.00 in0.0 mm
03:45 AM 43.5°F6.4°C 43.0°F6.1°C 98% 1.3 mph WSW2.1 kmh WSW 2.2 mph3.5 kmh 30.07 in1018.3 mb 0.00 in0.0 mm 0.00 in0.0 mm 0.00 in0.0 mm
04:00 AM 43.5°F6.4°C 43.0°F6.1°C 98% 1.1 mph W1.8 kmh W 1.6 mph2.6 kmh 30.06 in1017.9 mb 0.00 in0.0 mm 0.00 in0.0 mm 0.00 in0.0 mm
04:30 AM 43.2°F6.2°C 42.6°F5.9°C 98% 0.9 mph ESE1.4 kmh ESE 1.6 mph2.6 kmh 30.07 in1018.3 mb 0.00 in0.0 mm 0.00 in0.0 mm 0.00 in0.0 mm
04:45 AM 43.5°F6.4°C 43.0°F6.1°C 98% 0.7 mph W1.1 kmh W 2.2 mph3.5 kmh 30.07 in1018.3 mb 0.00 in0.0 mm 0.00 in0.0 mm 0.00 in0.0 mm
05:00 AM 43.7°F6.5°C 43.2°F6.2°C 98% 0.4 mph NW0.6 kmh NW 1.6 mph2.6 kmh 30.08 in1018.6 mb 0.00 in0.0 mm 0.00 in0.0 mm 0.00 in0.0 mm
05:15 AM 43.7°F6.5°C 43.2°F6.2°C 98% 0.9 mph NW1.4 kmh NW 1.6 mph2.6 kmh 30.08 in1018.6 mb 0.00 in0.0 mm 0.00 in0.0 mm 0.00 in0.0 mm
05:30 AM 43.7°F6.5°C 43.2°F6.2°C 98% 0.8 mph ESE1.3 kmh ESE 2.2 mph3.5 kmh 30.08 in1018.6 mb 0.00 in0.0 mm 0.00 in0.0 mm 0.00 in0.0 mm
05:45 AM 43.9°F6.6°C 43.4°F6.3°C 98% 0.8 mph WSW1.3 kmh WSW 1.6 mph2.6 kmh 30.09 in1019.0 mb 0.00 in0.0 mm 0.00 in0.0 mm 0.00 in0.0 mm
06:00 AM 44.2°F6.8°C 43.7°F6.5°C 98% 1.6 mph WNW2.6 kmh WNW 2.2 mph3.5 kmh 30.08 in1018.6 mb 0.00 in0.0 mm 0.00 in0.0 mm 0.00 in0.0 mm
06:15 AM 44.4°F6.9°C 43.9°F6.6°C 98% 0.4 mph WSW0.6 kmh WSW 0.7 mph1.1 kmh 30.09 in1019.0 mb 0.00 in0.0 mm 0.00 in0.0 mm 0.00 in0.0 mm
06:30 AM 44.6°F7.0°C 43.8°F6.6°C 97% 0.9 mph WSW1.4 kmh WSW 3.1 mph5.0 kmh 30.09 in1019.0 mb 0.00 in0.0 mm 0.00 in0.0 mm 0.00 in0.0 mm
06:45 AM 45.0°F7.2°C 44.2°F6.8°C 97% 0.3 mph W0.5 kmh W 0.7 mph1.1 kmh 30.09 in1019.0 mb 0.00 in0.0 mm 0.00 in0.0 mm 0.00 in0.0 mm
07:00 AM 45.5°F7.5°C 44.7°F7.1°C 97% 0.9 mph SW1.4 kmh SW 1.6 mph2.6 kmh 30.10 in1019.3 mb 0.00 in0.0 mm 0.00 in0.0 mm 0.00 in0.0 mm
07:15 AM 46.0°F7.8°C 45.2°F7.3°C 97% 0.9 mph SE1.4 kmh SE 1.6 mph2.6 kmh 30.11 in1019.6 mb 0.00 in0.0 mm 0.00 in0.0 mm 0.00 in0.0 mm
07:30 AM 46.8°F8.2°C 46.5°F8.1°C 99% 0.7 mph WSW1.1 kmh WSW 1.6 mph2.6 kmh 30.10 in1019.3 mb 0.00 in0.0 mm 0.00 in0.0 mm 0.00 in0.0 mm
07:45 AM 47.3°F8.5°C 47.0°F8.3°C 99% 1.2 mph SW1.9 kmh SW 2.2 mph3.5 kmh 30.11 in1019.6 mb 0.00 in0.0 mm 0.00 in0.0 mm 0.00 in0.0 mm
08:00 AM 47.7°F8.7°C 47.4°F8.6°C 99% 1.3 mph S2.1 kmh S 3.8 mph6.1 kmh 30.11 in1019.6 mb 0.00 in0.0 mm 0.00 in0.0 mm 0.00 in0.0 mm
08:15 AM 48.2°F9.0°C 47.9°F8.8°C 99% 1.0 mph NW1.6 kmh NW 2.2 mph3.5 kmh 30.11 in1019.6 mb 0.00 in0.0 mm 0.00 in0.0 mm 0.00 in0.0 mm
08:30 AM 48.9°F9.4°C 48.7°F9.3°C 99% 1.1 mph WSW1.8 kmh WSW 2.2 mph3.5 kmh 30.11 in1019.6 mb 0.00 in0.0 mm 0.00 in0.0 mm 0.00 in0.0 mm
08:45 AM 50.0°F10.0°C 49.7°F9.8°C 99% 1.4 mph SSW2.3 kmh SSW 3.1 mph5.0 kmh 30.11 in1019.6 mb 0.00 in0.0 mm 0.00 in0.0 mm 0.00 in0.0 mm
09:00 AM 51.6°F10.9°C 51.4°F10.8°C 99% 1.4 mph NNE2.3 kmh NNE 2.2 mph3.5 kmh 30.12 in1020.0 mb 0.01 in0.3 mm 0.01 in0.3 mm 0.01 in0.3 mm
09:15 AM 52.9°F11.6°C 52.3°F11.3°C 98% 1.4 mph NW2.3 kmh NW 2.2 mph3.5 kmh 30.11 in1019.6 mb 0.01 in0.3 mm 0.00 in0.0 mm 0.01 in0.3 mm
09:30 AM 54.0°F12.2°C 53.1°F11.7°C 97% 1.3 mph W2.1 kmh W 2.2 mph3.5 kmh 30.12 in1020.0 mb 0.01 in0.3 mm 0.00 in0.0 mm 0.01 in0.3 mm
09:45 AM 54.5°F12.5°C 53.4°F11.9°C 96% 2.6 mph WNW4.2 kmh WNW 3.8 mph6.1 kmh 30.12 in1020.0 mb 0.01 in0.3 mm 0.00 in0.0 mm 0.01 in0.3 mm
10:00 AM 55.6°F13.1°C 53.6°F12.0°C 93% 2.3 mph NW3.7 kmh NW 4.5 mph7.2 kmh 30.12 in1020.0 mb 0.00 in0.0 mm 0.00 in0.0 mm 0.01 in0.3 mm
10:15 AM 57.6°F14.2°C 52.4°F11.3°C 83% 2.8 mph SW4.5 kmh SW 6.9 mph11.1 kmh 30.12 in1020.0 mb 0.00 in0.0 mm 0.00 in0.0 mm 0.01 in0.3 mm
10:28 AM 57.7°F14.3°C 50.6°F10.3°C 77% 2.7 mph WSW4.3 kmh WSW 4.5 mph7.2 kmh 30.12 in1020.0 mb 0.00 in0.0 mm 0.00 in0.0 mm 0.01 in0.3 mm
10:30 AM 57.9°F14.4°C 50.4°F10.2°C 76% 3.0 mph WNW4.8 kmh WNW 4.5 mph7.2 kmh 30.13 in1020.3 mb 0.00 in0.0 mm 0.00 in0.0 mm 0.01 in0.3 mm
10:45 AM 57.7°F14.3°C 49.5°F9.7°C 74% 2.6 mph WSW4.2 kmh WSW 5.4 mph8.7 kmh 30.12 in1020.0 mb 0.00 in0.0 mm 0.00 in0.0 mm 0.01 in0.3 mm
11:00 AM 61.9°F16.6°C 51.6°F10.9°C 69% 3.5 mph NE5.6 kmh NE 4.5 mph7.2 kmh 30.11 in1019.6 mb 0.00 in0.0 mm 0.00 in0.0 mm 0.01 in0.3 mm
11:15 AM 60.1°F15.6°C 49.1°F9.5°C 67% 2.8 mph WSW4.5 kmh WSW 4.0 mph6.4 kmh 30.12 in1020.0 mb 0.00 in0.0 mm 0.00 in0.0 mm 0.01 in0.3 mm
11:30 AM 59.9°F15.5°C 50.1°F10.1°C 70% 2.3 mph WNW3.7 kmh WNW 4.5 mph7.2 kmh 30.11 in1019.6 mb 0.00 in0.0 mm 0.00 in0.0 mm 0.01 in0.3 mm
11:45 AM 58.5°F14.7°C 49.1°F9.5°C 71% 2.1 mph SE3.4 kmh SE 4.5 mph7.2 kmh 30.11 in1019.6 mb 0.00 in0.0 mm 0.00 in0.0 mm 0.01 in0.3 mm
12:00 PM 59.9°F15.5°C 49.7°F9.8°C 69% 3.3 mph WSW5.3 kmh WSW 4.5 mph7.2 kmh 30.11 in1019.6 mb 0.00 in0.0 mm 0.00 in0.0 mm 0.01 in0.3 mm
12:15 PM 59.2°F15.1°C 49.0°F9.4°C 69% 3.1 mph WNW5.0 kmh WNW 4.5 mph7.2 kmh 30.11 in1019.6 mb 0.00 in0.0 mm 0.00 in0.0 mm 0.01 in0.3 mm
12:30 PM 59.2°F15.1°C 48.6°F9.2°C 68% 2.4 mph NNW3.9 kmh NNW 3.1 mph5.0 kmh 30.11 in1019.6 mb 0.00 in0.0 mm 0.00 in0.0 mm 0.01 in0.3 mm
12:45 PM 59.2°F15.1°C 49.4°F9.7°C 70% 3.6 mph S5.8 kmh S 9.8 mph15.8 kmh 30.11 in1019.6 mb 0.00 in0.0 mm 0.00 in0.0 mm 0.01 in0.3 mm
01:00 PM 59.4°F15.2°C 49.2°F9.6°C 69% 3.1 mph SW5.0 kmh SW 4.5 mph7.2 kmh 30.11 in1019.6 mb 0.00 in0.0 mm 0.00 in0.0 mm 0.01 in0.3 mm
01:15 PM 60.1°F15.6°C 49.9°F9.9°C 69% 2.6 mph NNW4.2 kmh NNW 3.8 mph6.1 kmh 30.11 in1019.6 mb 0.00 in0.0 mm 0.00 in0.0 mm 0.01 in0.3 mm
01:30 PM 58.3°F14.6°C 49.3°F9.6°C 72% 2.7 mph WSW4.3 kmh WSW 3.8 mph6.1 kmh 30.10 in1019.3 mb 0.00 in0.0 mm 0.00 in0.0 mm 0.01 in0.3 mm
01:45 PM 57.2°F14.0°C 49.0°F9.4°C 74% 3.1 mph ENE5.0 kmh ENE 6.9 mph11.1 kmh 30.10 in1019.3 mb 0.00 in0.0 mm 0.00 in0.0 mm 0.01 in0.3 mm
02:00 PM 57.4°F14.1°C 49.5°F9.7°C 75% 2.3 mph WNW3.7 kmh WNW 3.8 mph6.1 kmh 30.10 in1019.3 mb 0.00 in0.0 mm 0.00 in0.0 mm 0.01 in0.3 mm
02:15 PM 58.3°F14.6°C 50.0°F10.0°C 74% 2.5 mph NE4.0 kmh NE 3.8 mph6.1 kmh 30.10 in1019.3 mb 0.00 in0.0 mm 0.00 in0.0 mm 0.01 in0.3 mm
02:30 PM 61.0°F16.1°C 50.0°F10.0°C 67% 4.5 mph WSW7.2 kmh WSW 7.6 mph12.2 kmh 30.09 in1019.0 mb 0.00 in0.0 mm 0.00 in0.0 mm 0.01 in0.3 mm
02:45 PM 64.8°F18.2°C 51.9°F11.1°C 63% 3.3 mph SSW5.3 kmh SSW 6.0 mph9.7 kmh 30.08 in1018.6 mb 0.00 in0.0 mm 0.00 in0.0 mm 0.01 in0.3 mm
03:00 PM 64.4°F18.0°C 51.1°F10.6°C 62% 2.6 mph WNW4.2 kmh WNW 4.5 mph7.2 kmh 30.09 in1019.0 mb 0.00 in0.0 mm 0.00 in0.0 mm 0.01 in0.3 mm
03:15 PM 60.8°F16.0°C 50.2°F10.1°C 68% 2.9 mph WNW4.7 kmh WNW 4.5 mph7.2 kmh 30.08 in1018.6 mb 0.00 in0.0 mm 0.00 in0.0 mm 0.01 in0.3 mm
03:30 PM 59.0°F15.0°C 50.0°F10.0°C 72% 2.4 mph NW3.9 kmh NW 6.0 mph9.7 kmh 30.07 in1018.3 mb 0.00 in0.0 mm 0.00 in0.0 mm 0.01 in0.3 mm
03:45 PM 58.6°F14.8°C 50.4°F10.2°C 74% 2.0 mph NW3.2 kmh NW 3.1 mph5.0 kmh 30.07 in1018.3 mb 0.00 in0.0 mm 0.00 in0.0 mm 0.01 in0.3 mm
04:00 PM 58.1°F14.5°C 50.2°F10.1°C 75% 3.8 mph ESE6.1 kmh ESE 6.9 mph11.1 kmh 30.07 in1018.3 mb 0.00 in0.0 mm 0.00 in0.0 mm 0.01 in0.3 mm
04:30 PM 57.0°F13.9°C 50.9°F10.5°C 80% 2.0 mph WNW3.2 kmh WNW 3.1 mph5.0 kmh 30.06 in1017.9 mb 0.00 in0.0 mm 0.00 in0.0 mm 0.01 in0.3 mm
04:45 PM 57.0°F13.9°C 51.3°F10.7°C 81% 1.9 mph SSW3.1 kmh SSW 3.8 mph6.1 kmh 30.06 in1017.9 mb 0.00 in0.0 mm 0.00 in0.0 mm 0.01 in0.3 mm
05:00 PM 57.2°F14.0°C 51.1°F10.6°C 80% 0.8 mph N1.3 kmh N 1.6 mph2.6 kmh 30.07 in1018.3 mb 0.00 in0.0 mm 0.00 in0.0 mm 0.01 in0.3 mm
05:15 PM 56.8°F13.8°C 51.1°F10.6°C 81% 0.3 mph N0.5 kmh N 0.7 mph1.1 kmh 30.06 in1017.9 mb 0.00 in0.0 mm 0.00 in0.0 mm 0.01 in0.3 mm
05:45 PM 56.1°F13.4°C 51.0°F10.6°C 83% 0.6 mph SW1.0 kmh SW 2.2 mph3.5 kmh 30.05 in1017.6 mb 0.00 in0.0 mm 0.00 in0.0 mm 0.01 in0.3 mm
06:00 PM 55.4°F13.0°C 51.0°F10.6°C 85% 0.2 mph N0.3 kmh N 1.6 mph2.6 kmh 30.05 in1017.6 mb 0.00 in0.0 mm 0.00 in0.0 mm 0.01 in0.3 mm
06:15 PM 54.9°F12.7°C 50.8°F10.4°C 86% 0.5 mph WSW0.8 kmh WSW 1.6 mph2.6 kmh 30.06 in1017.9 mb 0.00 in0.0 mm 0.00 in0.0 mm 0.01 in0.3 mm
06:30 PM 54.3°F12.4°C 50.2°F10.1°C 86% 0.7 mph N1.1 kmh N 3.1 mph5.0 kmh 30.04 in1017.3 mb 0.00 in0.0 mm 0.00 in0.0 mm 0.01 in0.3 mm
06:45 PM 54.0°F12.2°C 50.2°F10.1°C 87% 0.9 mph N1.4 kmh N 1.6 mph2.6 kmh 30.04 in1017.3 mb 0.00 in0.0 mm 0.00 in0.0 mm 0.01 in0.3 mm
07:00 PM 54.0°F12.2°C 50.2°F10.1°C 87% 0.9 mph NW1.4 kmh NW 3.1 mph5.0 kmh 30.04 in1017.3 mb 0.00 in0.0 mm 0.00 in0.0 mm 0.01 in0.3 mm
07:15 PM 53.6°F12.0°C 49.8°F9.9°C 87% 1.1 mph NW1.8 kmh NW 3.1 mph5.0 kmh 30.04 in1017.3 mb 0.00 in0.0 mm 0.00 in0.0 mm 0.01 in0.3 mm
07:45 PM 53.8°F12.1°C 49.4°F9.7°C 85% 2.1 mph NNE3.4 kmh NNE 3.8 mph6.1 kmh 30.02 in1016.6 mb 0.00 in0.0 mm 0.00 in0.0 mm 0.01 in0.3 mm
08:00 PM 53.8°F12.1°C 49.4°F9.7°C 85% 1.7 mph NNE2.7 kmh NNE 2.2 mph3.5 kmh 30.02 in1016.6 mb 0.00 in0.0 mm 0.00 in0.0 mm 0.01 in0.3 mm
08:15 PM 53.4°F11.9°C 49.0°F9.4°C 85% 1.2 mph N1.9 kmh N 2.2 mph3.5 kmh 30.02 in1016.6 mb 0.00 in0.0 mm 0.00 in0.0 mm 0.01 in0.3 mm
08:30 PM 52.9°F11.6°C 48.8°F9.3°C 86% 1.4 mph NNW2.3 kmh NNW 2.2 mph3.5 kmh 30.00 in1015.9 mb 0.00 in0.0 mm 0.00 in0.0 mm 0.01 in0.3 mm
08:45 PM 53.4°F11.9°C 49.7°F9.8°C 87% 1.7 mph NNW2.7 kmh NNW 2.2 mph3.5 kmh 30.00 in1015.9 mb 0.00 in0.0 mm 0.00 in0.0 mm 0.01 in0.3 mm
09:00 PM 53.6°F12.0°C 49.8°F9.9°C 87% 1.4 mph N2.3 kmh N 1.6 mph2.6 kmh 29.99 in1015.6 mb 0.00 in0.0 mm 0.00 in0.0 mm 0.01 in0.3 mm
09:29 PM 52.7°F11.5°C 49.9°F9.9°C 90% 0.5 mph N0.8 kmh N 1.6 mph2.6 kmh 29.97 in1014.9 mb 0.01 in0.3 mm 0.02 in0.5 mm 0.02 in0.5 mm
09:30 PM 52.7°F11.5°C 49.9°F9.9°C 90% 0.5 mph N0.8 kmh N 1.6 mph2.6 kmh 29.97 in1014.9 mb 0.01 in0.3 mm 0.00 in0.0 mm 0.02 in0.5 mm
09:31 PM 52.7°F11.5°C 50.2°F10.1°C 91% 0.4 mph N0.6 kmh N 0.7 mph1.1 kmh 29.97 in1014.9 mb 0.01 in0.3 mm 0.00 in0.0 mm 0.02 in0.5 mm
09:45 PM 52.7°F11.5°C 50.4°F10.2°C 92% 1.5 mph ENE2.4 kmh ENE 2.2 mph3.5 kmh 29.97 in1014.9 mb 0.01 in0.3 mm 0.00 in0.0 mm 0.02 in0.5 mm
10:00 PM 52.7°F11.5°C 50.7°F10.4°C 93% 0.4 mph S0.6 kmh S 1.6 mph2.6 kmh 29.95 in1014.2 mb 0.02 in0.5 mm 0.01 in0.3 mm 0.04 in1.0 mm
10:15 PM 52.5°F11.4°C 50.6°F10.3°C 93% Calm Calm -- 29.95 in1014.2 mb 0.04 in1.0 mm 0.08 in2.0 mm 0.05 in1.3 mm
10:30 PM 52.5°F11.4°C 50.8°F10.4°C 94% 0.1 mph W0.2 kmh W 1.6 mph2.6 kmh 29.93 in1013.5 mb 0.02 in0.5 mm 0.00 in0.0 mm 0.05 in1.3 mm
10:45 PM 52.7°F11.5°C 51.3°F10.7°C 95% 1.7 mph NW2.7 kmh NW 3.8 mph6.1 kmh 29.91 in1012.9 mb 0.02 in0.5 mm 0.00 in0.0 mm 0.05 in1.3 mm
11:15 PM 53.6°F12.0°C 52.2°F11.2°C 95% 2.8 mph NW4.5 kmh NW 6.0 mph9.7 kmh 29.90 in1012.5 mb 0.00 in0.0 mm 0.00 in0.0 mm 0.05 in1.3 mm
11:30 PM 54.0°F12.2°C 52.6°F11.4°C 95% 2.6 mph ESE4.2 kmh ESE 4.5 mph7.2 kmh 29.88 in1011.9 mb 0.00 in0.0 mm 0.00 in0.0 mm 0.05 in1.3 mm
11:45 PM 54.7°F12.6°C 53.0°F11.7°C 94% 4.1 mph WSW6.6 kmh WSW 6.9 mph11.1 kmh 29.86 in1011.2 mb 0.00 in0.0 mm 0.00 in0.0 mm 0.05 in1.3 mm